Weather observations for the past three days for
Oceanside, Camp Pendleton, Marine Corps Air Station
Metric (Imperial)
Date Time (pdt) Wind (kph) Vis. (km) Weather Sky Cond. Temperature (ºC) Relative Humidity Wind Chill (°C) Heat Index (°C) Pressure Precipitation (cm)
Air Dwpt 6 hour altimeter (cm) sea level (mb) 1 hr 3 hr 6 hr
Max. Min.
10 05:52 N 9 14.48 Overcast OVC007 15 13.9 93% 75.97 1012.6
10 04:52 E 6 14.48 Overcast OVC008 15.6 13.9 16.1 15 90% 75.95 1012.5
10 02:52 E 6 16.09 Overcast OVC010 16.1 13.9 87% 75.97 1012.7
10 01:52 NE 6 16.09 Overcast OVC011 16.1 13.9 87% 75.97 1012.8
10 00:52 E 7 16.09 Overcast OVC012 15.6 13.9 90% 76 1013.2
09 23:52 NE 7 16.09 Overcast OVC011 15.6 13.3 86% 76.02 1013.4
09 22:52 NE 6 16.09 Overcast OVC011 15 13.3 20.6 13.3 90% 76.02 1013.5
09 20:52 Calm 16.09 Fair CLR 15 13.3 90% 76 1013.0
09 19:52 Calm 16.09 A Few Clouds FEW012 16.1 13.9 87% 75.95 1012.4
09 18:52 Vrbl 9 16.09 Fair CLR 17.8 13.9 78% 75.92 1012.0
09 17:52 SW 13 16.09 Fair CLR 18.9 14.4 75% 75.92 1011.9
09 16:52 SW 11 16.09 Fair CLR 20.6 14.4 23.9 20.6 68% 75.9 1011.7
09 15:52 SW 13 G 28 16.09 Fair CLR 21.1 14.4 66% 75.9 1011.8
09 14:52 SW 20 16.09 Fair CLR 21.7 14.4 63% 75.92 1012.1
09 13:52 SW 15 G 33 16.09 Fair CLR 22.8 14.4 59% 75.95 1012.5
09 12:52 SW 13 G 30 16.09 Fair CLR 22.2 14.4 61% 75.97 1012.9
09 11:52 SW 19 G 31 16.09 Fair CLR 22.8 15 62% 76 1013.1
09 10:52 Vrbl 7 16.09 Fair CLR 22.8 14.4 22.8 15.6 59% 76 1013.2
09 09:52 Calm 16.09 A Few Clouds FEW017 20.6 14.4 68% 76.02 1013.6
09 07:52 NE 9 16.09 Overcast OVC013 16.1 13.9 87% 76.05 1013.9
09 06:52 NE 9 16.09 Overcast OVC013 15.6 13.9 90% 76.05 1013.6
09 05:52 NE 9 16.09 Overcast OVC012 15.6 13.9 90% 76.02 1013.4
09 04:52 NE 9 16.09 Overcast OVC012 15.6 13.9 16.7 15.6 90% 76 1013.2
09 03:52 NE 7 16.09 Overcast OVC011 16.1 14.4 90% 76.02 1013.3
09 02:52 NE 6 16.09 Overcast OVC011 16.7 14.4 86% 76.02 1013.5
09 01:52 NE 6 16.09 Overcast OVC010 16.7 14.4 86% 76.05 1013.8
09 00:52 Calm 16.09 Overcast OVC010 16.7 14.4 86% 76.1 1014.3
08 22:52 Calm 16.09 Overcast OVC010 16.1 14.4 21.7 16.1 90% 76.12 1014.8
08 21:52 Calm 16.09 Overcast OVC010 16.1 14.4 90% 76.12 1014.8
08 20:52 Calm 16.09 Overcast OVC010 16.1 14.4 90% 76.1 1014.5
08 18:52 SW 13 16.09 Fair CLR 17.8 14.4 81% 76.02 1013.4
08 17:52 SW 13 16.09 Fair CLR 20 14.4 70% 76 1013.2
08 16:52 SW 13 16.09 Fair CLR 22.2 15 23.3 20 64% 76 1013.2
08 15:52 W 15 G 31 16.09 Fair CLR 21.7 15 66% 76.05 1013.7
08 12:52 SW 15 G 26 16.09 Fair CLR 22.8 15 62% 76.12 1014.6
08 11:52 S 13 16.09 A Few Clouds FEW020 22.2 15 64% 76.17 1015.4
08 10:52 Vrbl 6 16.09 Mostly Cloudy BKN016 20 14.4 20 16.1 70% 76.23 1016.0
08 09:52 Calm 16.09 Overcast OVC013 17.2 14.4 84% 76.25 1016.3
08 08:52 Calm 16.09 Overcast OVC012 16.7 14.4 86% 76.25 1016.5
08 07:52 Calm 16.09 Overcast OVC011 16.1 14.4 90% 76.25 1016.5
08 06:52 NE 6 16.09 Overcast OVC012 16.1 14.4 90% 76.23 1016.2
08 05:52 Calm 16.09 Overcast OVC011 16.1 14.4 90% 76.2 1015.9
08 04:52 Calm 16.09 Overcast OVC012 16.1 14.4 16.7 16.1 90% 76.2 1015.7
08 02:52 Calm 16.09 Overcast OVC012 16.7 13.9 84% 76.2 1015.6
08 01:52 S 7 16.09 Overcast OVC012 16.7 14.4 86% 76.2 1015.9
08 00:52 E 6 16.09 Overcast OVC012 16.7 14.4 86% 76.23 1016.3
07 23:52 Calm 16.09 Overcast OVC012 16.7 14.4 86% 76.25 1016.6
07 20:52 W 6 16.09 Mostly Cloudy BKN011 16.1 13.9 87% 76.2 1015.7
07 18:52 SW 7 16.09 Fair CLR 17.2 13.9 81% 76.12 1014.6
07 17:52 SW 13 16.09 Fair CLR 18.3 13.9 76% 76.1 1014.5
07 16:52 SW 13 16.09 Fair CLR 20 14.4 21.7 19.4 70% 76.1 1014.3
07 15:52 SW 13 G 30 16.09 Fair CLR 20 14.4 70% 76.1 1014.4
07 14:52 SW 15 16.09 Fair CLR 20.6 14.4 68% 76.12 1014.7
07 13:52 W 15 G 30 16.09 A Few Clouds FEW030 21.1 14.4 66% 76.15 1015.2
07 11:52 SW 13 16.09 A Few Clouds FEW030 21.7 14.4 63% 76.2 1015.9
07 10:52 SW 13 16.09 A Few Clouds FEW030 21.1 14.4 21.1 8.3 66% 76.23 1016.2
07 09:52 Vrbl 7 16.09 A Few Clouds FEW030 20 12.8 63% 76.25 1016.4
07 08:52 Calm 16.09 Partly Cloudy SCT030 17.2 13.3 78% 76.28 1016.9
07 07:52 Calm 16.09 Partly Cloudy SCT030 13.9 11.1 83% 76.28 1016.9
07 06:52 Calm 16.09 Fair CLR 10 9.4 96% 76.28 1016.7
Date Time (pdt) Wind (kph) Vis. (km) Weather Sky Cond. Air Dwpt Max. Min. Relative Humidity Wind Chill (°C) Heat Index (°C) altimeter (cm) sea level (mb) 1 hr 3 hr 6 hr
6 hour
Temperature (ºC) Pressure Precipitation (cm)